Time,TemperatureF,DewpointF,PressureIn,WindDirection,WindDirectionDegrees,WindSpeedMPH,WindSpeedGustMPH,Humidity,HourlyPrecipIn,Conditions,Clouds,dailyrainin,SolarRadiationWatts/m^2,SoftwareType,DateUTC
2013-05-27 00:02:00,51.0,10.0,-100.00,SE,135,1.0,3.0,19,0.00,,,0.00,0.000000,,2013-05-27 06:02:00,
2013-05-27 00:11:00,51.0,10.0,-100.00,SE,135,1.0,3.0,19,0.00,,,0.00,0.000000,,2013-05-27 06:11:00,
2013-05-27 00:21:00,51.0,10.0,-100.00,SE,135,1.0,3.0,19,0.00,,,0.00,0.000000,,2013-05-27 06:21:00,
2013-05-27 00:42:00,47.0,11.0,-100.00,East,96,2.0,3.0,23,0.00,,,0.00,0.000000,,2013-05-27 06:42:00,
2013-05-27 00:52:00,47.0,11.0,-100.00,East,96,2.0,3.0,23,0.00,,,0.00,0.000000,,2013-05-27 06:52:00,
2013-05-27 01:02:00,47.0,11.0,-100.00,East,96,2.0,3.0,23,0.00,,,0.00,0.000000,,2013-05-27 07:02:00,
2013-05-27 01:11:00,47.0,11.0,-100.00,East,96,2.0,3.0,23,0.00,,,0.00,0.000000,,2013-05-27 07:11:00,
2013-05-27 01:21:00,47.0,11.0,-100.00,East,96,2.0,3.0,23,0.00,,,0.00,0.000000,,2013-05-27 07:21:00,
2013-05-27 01:22:00,46.0,12.0,-100.00,ESE,108,2.0,2.0,25,0.00,,,0.00,0.000000,,2013-05-27 07:22:00,
2013-05-27 01:42:00,46.0,12.0,-100.00,ESE,108,2.0,2.0,25,0.00,,,0.00,0.000000,,2013-05-27 07:42:00,
2013-05-27 01:52:00,46.0,12.0,-100.00,ESE,108,2.0,2.0,25,0.00,,,0.00,0.000000,,2013-05-27 07:52:00,
2013-05-27 02:02:00,46.0,12.0,-100.00,ESE,108,2.0,2.0,25,0.00,,,0.00,0.000000,,2013-05-27 08:02:00,
2013-05-27 02:11:00,46.0,12.0,-100.00,ESE,108,2.0,2.0,25,0.00,,,0.00,0.000000,,2013-05-27 08:11:00,
2013-05-27 02:42:00,44.0,13.0,-100.00,ESE,106,2.0,3.0,28,0.00,,,0.00,0.000000,,2013-05-27 08:42:00,
2013-05-27 02:52:00,44.0,13.0,-100.00,ESE,106,2.0,3.0,28,0.00,,,0.00,0.000000,,2013-05-27 08:52:00,
2013-05-27 03:02:00,44.0,13.0,-100.00,ESE,106,2.0,3.0,28,0.00,,,0.00,0.000000,,2013-05-27 09:02:00,
2013-05-27 03:11:00,44.0,13.0,-100.00,ESE,106,2.0,3.0,28,0.00,,,0.00,0.000000,,2013-05-27 09:11:00,
2013-05-27 03:21:00,44.0,13.0,-100.00,ESE,106,2.0,3.0,28,0.00,,,0.00,0.000000,,2013-05-27 09:21:00,
2013-05-27 03:22:00,42.0,12.0,-100.00,South,190,0.0,3.0,29,0.00,,,0.00,0.000000,,2013-05-27 09:22:00,
2013-05-27 03:42:00,42.0,12.0,-100.00,South,190,0.0,3.0,29,0.00,,,0.00,0.000000,,2013-05-27 09:42:00,
2013-05-27 03:53:00,42.0,12.0,-100.00,South,190,0.0,3.0,29,0.00,,,0.00,0.000000,,2013-05-27 09:53:00,
2013-05-27 04:02:00,42.0,12.0,-100.00,South,190,0.0,3.0,29,0.00,,,0.00,0.000000,,2013-05-27 10:02:00,
2013-05-27 04:12:00,42.0,12.0,-100.00,South,190,0.0,3.0,29,0.00,,,0.00,0.000000,,2013-05-27 10:12:00,
2013-05-27 04:22:00,41.0,15.0,-100.00,East,100,2.0,2.0,34,0.00,,,0.00,0.000000,,2013-05-27 10:22:00,
2013-05-27 04:42:00,41.0,15.0,-100.00,East,100,2.0,2.0,34,0.00,,,0.00,0.000000,,2013-05-27 10:42:00,
2013-05-27 04:52:00,41.0,15.0,-100.00,East,100,2.0,2.0,34,0.00,,,0.00,0.000000,,2013-05-27 10:52:00,
2013-05-27 05:02:00,41.0,15.0,-100.00,East,100,2.0,2.0,34,0.00,,,0.00,0.000000,,2013-05-27 11:02:00,
2013-05-27 05:11:00,41.0,15.0,-100.00,East,100,2.0,2.0,34,0.00,,,0.00,0.000000,,2013-05-27 11:11:00,
2013-05-27 05:42:00,40.0,14.0,-100.00,SE,126,2.0,3.0,34,0.00,,,0.00,0.000000,,2013-05-27 11:42:00,
2013-05-27 05:52:00,40.0,14.0,-100.00,SE,126,2.0,3.0,34,0.00,,,0.00,0.000000,,2013-05-27 11:52:00,
2013-05-27 06:01:00,40.0,14.0,-100.00,SE,126,2.0,3.0,34,0.00,,,0.00,0.000000,,2013-05-27 12:01:00,
2013-05-27 06:11:00,40.0,14.0,-100.00,SE,126,2.0,3.0,34,0.00,,,0.00,0.000000,,2013-05-27 12:11:00,
2013-05-27 06:21:00,40.0,14.0,-100.00,SE,126,2.0,3.0,34,0.00,,,0.00,0.000000,,2013-05-27 12:21:00,
2013-05-27 06:42:00,39.0,14.0,-100.00,North,351,1.0,3.0,35,0.00,,,0.00,10.000000,,2013-05-27 12:42:00,
2013-05-27 06:52:00,39.0,14.0,-100.00,North,351,1.0,3.0,35,0.00,,,0.00,10.000000,,2013-05-27 12:52:00,
2013-05-27 07:01:00,39.0,14.0,-100.00,North,351,1.0,3.0,35,0.00,,,0.00,10.000000,,2013-05-27 13:01:00,
2013-05-27 07:11:00,39.0,14.0,-100.00,North,351,1.0,3.0,35,0.00,,,0.00,10.000000,,2013-05-27 13:11:00,
2013-05-27 07:21:00,39.0,14.0,-100.00,North,351,1.0,3.0,35,0.00,,,0.00,10.000000,,2013-05-27 13:21:00,
2013-05-27 07:42:00,41.0,19.0,-100.00,ESE,108,2.0,2.0,40,0.00,,,0.00,52.000000,,2013-05-27 13:42:00,
2013-05-27 07:53:00,41.0,19.0,-100.00,ESE,108,2.0,2.0,40,0.00,,,0.00,52.000000,,2013-05-27 13:53:00,
2013-05-27 08:02:00,41.0,19.0,-100.00,ESE,108,2.0,2.0,40,0.00,,,0.00,52.000000,,2013-05-27 14:02:00,
2013-05-27 08:11:00,41.0,19.0,-100.00,ESE,108,2.0,2.0,40,0.00,,,0.00,52.000000,,2013-05-27 14:11:00,
2013-05-27 08:21:00,41.0,19.0,-100.00,ESE,108,2.0,2.0,40,0.00,,,0.00,52.000000,,2013-05-27 14:21:00,
2013-05-27 08:42:00,47.0,21.0,-100.00,North,7,2.0,3.0,35,0.00,,,0.00,138.000000,,2013-05-27 14:42:00,
2013-05-27 08:52:00,47.0,21.0,-100.00,North,7,2.0,3.0,35,0.00,,,0.00,138.000000,,2013-05-27 14:52:00,
2013-05-27 09:01:00,47.0,21.0,-100.00,North,7,2.0,3.0,35,0.00,,,0.00,138.000000,,2013-05-27 15:01:00,
2013-05-27 09:11:00,47.0,21.0,-100.00,North,7,2.0,3.0,35,0.00,,,0.00,138.000000,,2013-05-27 15:11:00,
2013-05-27 09:21:00,47.0,21.0,-100.00,North,7,2.0,3.0,35,0.00,,,0.00,138.000000,,2013-05-27 15:21:00,
2013-05-27 09:22:00,57.0,16.0,-100.00,NNW,329,1.0,3.0,20,0.00,,,0.00,577.000000,,2013-05-27 15:22:00,
2013-05-27 09:43:00,57.0,16.0,-100.00,NNW,329,1.0,3.0,20,0.00,,,0.00,577.000000,,2013-05-27 15:43:00,
2013-05-27 09:53:00,57.0,16.0,-100.00,NNW,329,1.0,3.0,20,0.00,,,0.00,577.000000,,2013-05-27 15:53:00,
2013-05-27 10:03:00,57.0,16.0,-100.00,NNW,329,1.0,3.0,20,0.00,,,0.00,577.000000,,2013-05-27 16:03:00,
2013-05-27 10:12:00,57.0,16.0,-100.00,NNW,329,1.0,3.0,20,0.00,,,0.00,577.000000,,2013-05-27 16:12:00,
2013-05-27 10:22:00,59.0,17.0,-100.00,NW,325,3.0,5.0,19,0.00,,,0.00,905.000000,,2013-05-27 16:22:00,
2013-05-27 10:42:00,59.0,17.0,-100.00,NW,325,3.0,5.0,19,0.00,,,0.00,905.000000,,2013-05-27 16:42:00,
2013-05-27 10:53:00,59.0,17.0,-100.00,NW,325,3.0,5.0,19,0.00,,,0.00,905.000000,,2013-05-27 16:53:00,
2013-05-27 11:02:00,59.0,17.0,-100.00,NW,325,3.0,5.0,19,0.00,,,0.00,905.000000,,2013-05-27 17:02:00,
2013-05-27 11:11:00,59.0,17.0,-100.00,NW,325,3.0,5.0,19,0.00,,,0.00,905.000000,,2013-05-27 17:11:00,
2013-05-27 11:22:00,62.0,14.0,-100.00,NW,308,3.0,6.0,15,0.00,,,0.00,1040.000000,,2013-05-27 17:22:00,
2013-05-27 11:43:00,62.0,14.0,-100.00,NW,308,3.0,6.0,15,0.00,,,0.00,1040.000000,,2013-05-27 17:43:00,
2013-05-27 11:52:00,62.0,14.0,-100.00,NW,308,3.0,6.0,15,0.00,,,0.00,1040.000000,,2013-05-27 17:52:00,
2013-05-27 12:02:00,62.0,14.0,-100.00,NW,308,3.0,6.0,15,0.00,,,0.00,1040.000000,,2013-05-27 18:02:00,
2013-05-27 12:11:00,62.0,14.0,-100.00,NW,308,3.0,6.0,15,0.00,,,0.00,1040.000000,,2013-05-27 18:11:00,
2013-05-27 12:42:00,63.0,15.0,-100.00,NW,322,4.0,11.0,15,0.00,,,0.00,1158.000000,,2013-05-27 18:42:00,
2013-05-27 12:52:00,63.0,15.0,-100.00,NW,322,4.0,11.0,15,0.00,,,0.00,1158.000000,,2013-05-27 18:52:00,
2013-05-27 13:01:00,63.0,15.0,-100.00,NW,322,4.0,11.0,15,0.00,,,0.00,1158.000000,,2013-05-27 19:01:00,
2013-05-27 13:11:00,63.0,15.0,-100.00,NW,322,4.0,11.0,15,0.00,,,0.00,1158.000000,,2013-05-27 19:11:00,
2013-05-27 13:21:00,63.0,15.0,-100.00,NW,322,4.0,11.0,15,0.00,,,0.00,1158.000000,,2013-05-27 19:21:00,
2013-05-27 13:22:00,67.0,16.0,-100.00,NW,314,4.0,10.0,14,0.00,,,0.00,1209.000000,,2013-05-27 19:22:00,
2013-05-27 13:42:00,67.0,16.0,-100.00,NW,314,4.0,10.0,14,0.00,,,0.00,1209.000000,,2013-05-27 19:42:00,
2013-05-27 13:52:00,67.0,16.0,-100.00,NW,314,4.0,10.0,14,0.00,,,0.00,1209.000000,,2013-05-27 19:52:00,
2013-05-27 14:01:00,67.0,16.0,-100.00,NW,314,4.0,10.0,14,0.00,,,0.00,1209.000000,,2013-05-27 20:01:00,
2013-05-27 14:11:00,67.0,16.0,-100.00,NW,314,4.0,10.0,14,0.00,,,0.00,1209.000000,,2013-05-27 20:11:00,
2013-05-27 14:42:00,67.0,15.0,-100.00,West,279,6.0,13.0,13,0.00,,,0.00,1022.000000,,2013-05-27 20:42:00,
2013-05-27 14:52:00,67.0,15.0,-100.00,West,279,6.0,13.0,13,0.00,,,0.00,1022.000000,,2013-05-27 20:52:00,
2013-05-27 15:01:00,67.0,15.0,-100.00,West,279,6.0,13.0,13,0.00,,,0.00,1022.000000,,2013-05-27 21:01:00,
2013-05-27 15:12:00,67.0,15.0,-100.00,West,279,6.0,13.0,13,0.00,,,0.00,1022.000000,,2013-05-27 21:12:00,
2013-05-27 15:21:00,67.0,15.0,-100.00,West,279,6.0,13.0,13,0.00,,,0.00,1022.000000,,2013-05-27 21:21:00,
2013-05-27 15:22:00,64.0,12.0,-100.00,WNW,299,5.0,12.0,13,0.00,,,0.00,860.000000,,2013-05-27 21:22:00,
2013-05-27 15:43:00,64.0,12.0,-100.00,WNW,299,5.0,12.0,13,0.00,,,0.00,860.000000,,2013-05-27 21:43:00,
2013-05-27 15:53:00,64.0,12.0,-100.00,WNW,299,5.0,12.0,13,0.00,,,0.00,860.000000,,2013-05-27 21:53:00,
2013-05-27 16:02:00,64.0,12.0,-100.00,WNW,299,5.0,12.0,13,0.00,,,0.00,860.000000,,2013-05-27 22:02:00,
2013-05-27 16:12:00,64.0,12.0,-100.00,WNW,299,5.0,12.0,13,0.00,,,0.00,860.000000,,2013-05-27 22:12:00,
2013-05-27 16:22:00,63.0,15.0,-100.00,WNW,287,8.0,15.0,15,0.00,,,0.00,461.000000,,2013-05-27 22:22:00,
2013-05-27 16:42:00,63.0,15.0,-100.00,WNW,287,8.0,15.0,15,0.00,,,0.00,461.000000,,2013-05-27 22:42:00,
2013-05-27 16:53:00,63.0,15.0,-100.00,WNW,287,8.0,15.0,15,0.00,,,0.00,461.000000,,2013-05-27 22:53:00,
2013-05-27 17:02:00,63.0,15.0,-100.00,WNW,287,8.0,15.0,15,0.00,,,0.00,461.000000,,2013-05-27 23:02:00,
2013-05-27 17:12:00,63.0,15.0,-100.00,WNW,287,8.0,15.0,15,0.00,,,0.00,461.000000,,2013-05-27 23:12:00,
2013-05-27 17:42:00,67.0,13.0,-100.00,WNW,300,6.0,13.0,12,0.00,,,0.00,672.000000,,2013-05-27 23:42:00,
2013-05-27 17:52:00,67.0,13.0,-100.00,WNW,300,6.0,13.0,12,0.00,,,0.00,672.000000,,2013-05-27 23:52:00,
2013-05-27 18:01:00,67.0,13.0,-100.00,WNW,300,6.0,13.0,12,0.00,,,0.00,672.000000,,2013-05-28 00:01:00,
2013-05-27 18:11:00,67.0,13.0,-100.00,WNW,300,6.0,13.0,12,0.00,,,0.00,672.000000,,2013-05-28 00:11:00,
2013-05-27 18:21:00,67.0,13.0,-100.00,WNW,300,6.0,13.0,12,0.00,,,0.00,672.000000,,2013-05-28 00:21:00,
2013-05-27 18:42:00,66.0,12.0,-100.00,West,281,8.0,13.0,12,0.00,,,0.00,631.000000,,2013-05-28 00:42:00,
2013-05-27 18:52:00,66.0,12.0,-100.00,West,281,8.0,13.0,12,0.00,,,0.00,631.000000,,2013-05-28 00:52:00,
2013-05-27 19:01:00,66.0,12.0,-100.00,West,281,8.0,13.0,12,0.00,,,0.00,631.000000,,2013-05-28 01:01:00,
2013-05-27 19:11:00,66.0,12.0,-100.00,West,281,8.0,13.0,12,0.00,,,0.00,631.000000,,2013-05-28 01:11:00,
2013-05-27 19:21:00,66.0,12.0,-100.00,West,281,8.0,13.0,12,0.00,,,0.00,631.000000,,2013-05-28 01:21:00,
2013-05-27 19:42:00,62.0,11.0,-100.00,West,278,7.0,15.0,13,0.00,,,0.00,328.000000,,2013-05-28 01:42:00,
2013-05-27 19:52:00,62.0,11.0,-100.00,West,278,7.0,15.0,13,0.00,,,0.00,328.000000,,2013-05-28 01:52:00,
2013-05-27 20:02:00,62.0,11.0,-100.00,West,278,7.0,15.0,13,0.00,,,0.00,328.000000,,2013-05-28 02:02:00,
2013-05-27 20:11:00,62.0,11.0,-100.00,West,278,7.0,15.0,13,0.00,,,0.00,328.000000,,2013-05-28 02:11:00,
2013-05-27 20:21:00,62.0,11.0,-100.00,West,278,7.0,15.0,13,0.00,,,0.00,328.000000,,2013-05-28 02:21:00,
2013-05-27 20:42:00,57.0,13.0,-100.00,West,266,7.0,12.0,17,0.00,,,0.00,59.000000,,2013-05-28 02:42:00,
2013-05-27 20:52:00,57.0,13.0,-100.00,West,266,7.0,12.0,17,0.00,,,0.00,59.000000,,2013-05-28 02:52:00,
2013-05-27 21:01:00,57.0,13.0,-100.00,West,266,7.0,12.0,17,0.00,,,0.00,59.000000,,2013-05-28 03:01:00,
2013-05-27 21:11:00,57.0,13.0,-100.00,West,266,7.0,12.0,17,0.00,,,0.00,59.000000,,2013-05-28 03:11:00,
2013-05-27 21:21:00,57.0,13.0,-100.00,West,266,7.0,12.0,17,0.00,,,0.00,59.000000,,2013-05-28 03:21:00,
2013-05-27 21:22:00,55.0,11.0,-100.00,West,261,4.0,8.0,17,0.00,,,0.00,0.000000,,2013-05-28 03:22:00,
2013-05-27 21:43:00,55.0,11.0,-100.00,West,261,4.0,8.0,17,0.00,,,0.00,0.000000,,2013-05-28 03:43:00,
2013-05-27 21:53:00,55.0,11.0,-100.00,West,261,4.0,8.0,17,0.00,,,0.00,0.000000,,2013-05-28 03:53:00,
2013-05-27 22:03:00,55.0,11.0,-100.00,West,261,4.0,8.0,17,0.00,,,0.00,0.000000,,2013-05-28 04:03:00,
2013-05-27 22:13:00,55.0,11.0,-100.00,West,261,4.0,8.0,17,0.00,,,0.00,0.000000,,2013-05-28 04:13:00,
2013-05-27 22:22:00,49.0,12.0,-100.00,South,173,0.0,5.0,22,0.00,,,0.00,0.000000,,2013-05-28 04:22:00,
2013-05-27 22:43:00,49.0,12.0,-100.00,South,173,0.0,5.0,22,0.00,,,0.00,0.000000,,2013-05-28 04:43:00,
2013-05-27 22:53:00,49.0,12.0,-100.00,South,173,0.0,5.0,22,0.00,,,0.00,0.000000,,2013-05-28 04:53:00,
2013-05-27 23:02:00,49.0,12.0,-100.00,South,173,0.0,5.0,22,0.00,,,0.00,0.000000,,2013-05-28 05:02:00,
2013-05-27 23:12:00,49.0,12.0,-100.00,South,173,0.0,5.0,22,0.00,,,0.00,0.000000,,2013-05-28 05:12:00,
2013-05-27 23:42:00,48.0,13.0,-100.00,NNE,16,1.0,3.0,24,0.00,,,0.00,0.000000,,2013-05-28 05:42:00,
2013-05-27 23:52:00,48.0,13.0,-100.00,NNE,16,1.0,3.0,24,0.00,,,0.00,0.000000,,2013-05-28 05:52:00,